createdAt,value
2019-04-05T00:00:34.491Z,29.1646
2019-04-05T00:01:36.780Z,29.1371
2019-04-05T00:02:39.078Z,29.0929
2019-04-05T00:03:41.362Z,29.1234
2019-04-05T00:04:43.671Z,29.2195
2019-04-05T00:05:45.965Z,29.1783
2019-04-05T00:06:48.260Z,29.2470
2019-04-05T00:07:50.551Z,29.2607
2019-04-05T00:08:52.845Z,29.2073
2019-04-05T00:09:55.133Z,29.1371
2019-04-05T00:10:57.245Z,29.2058
2019-04-05T00:11:59.534Z,29.1646
2019-04-05T00:13:01.824Z,29.2332
2019-04-05T00:14:04.127Z,29.2195
2019-04-05T00:15:15.328Z,29.2302
2019-04-05T00:16:14.676Z,29.2210
2019-04-05T00:17:16.980Z,29.1615
2019-04-05T00:18:19.271Z,29.2744
2019-04-05T00:19:21.616Z,29.3019
2019-04-05T00:20:23.904Z,29.2164
2019-04-05T00:21:26.199Z,29.1752
2019-04-05T00:22:28.487Z,29.1752
2019-04-05T00:23:30.777Z,29.2027
2019-04-05T00:24:33.068Z,29.1646
2019-04-05T00:25:35.363Z,29.2576
2019-04-05T00:26:37.649Z,29.2195
2019-04-05T00:27:39.941Z,29.2027
2019-04-05T00:28:42.237Z,29.2882
2019-04-05T00:29:44.537Z,29.2332
2019-04-05T00:30:46.833Z,29.1752
2019-04-05T00:31:49.123Z,29.1875
2019-04-05T00:32:51.416Z,29.2988
2019-04-05T00:33:53.703Z,29.2699
2019-04-05T00:34:55.991Z,29.2424
2019-04-05T00:35:58.283Z,29.1615
2019-04-05T00:37:00.575Z,29.3111
2019-04-05T00:38:02.866Z,29.2302
2019-04-05T00:39:05.146Z,29.3263
2019-04-05T00:40:07.440Z,29.2302
2019-04-05T00:41:09.769Z,29.2424
2019-04-05T00:42:12.055Z,29.2714
2019-04-05T00:43:14.346Z,29.2561
2019-04-05T00:44:16.636Z,29.2851
2019-04-05T00:45:27.968Z,29.2836
2019-04-05T00:46:27.170Z,29.2973
2019-04-05T00:47:29.466Z,29.2149
2019-04-05T00:48:31.753Z,29.1752
2019-04-05T00:49:34.039Z,29.1844
2019-04-05T00:50:36.332Z,29.3126
2019-04-05T00:51:38.623Z,29.2149
2019-04-05T00:52:40.910Z,29.2149
2019-04-05T00:53:42.252Z,29.1737
2019-04-05T00:54:44.536Z,29.1844
2019-04-05T00:55:46.828Z,29.2668
2019-04-05T00:56:49.129Z,29.2012
2019-04-05T00:57:51.419Z,29.1691
2019-04-05T00:58:53.707Z,29.1737
2019-04-05T00:59:56.016Z,29.2012
2019-04-05T01:00:58.318Z,29.1844
2019-04-05T01:02:00.603Z,29.1844
2019-04-05T01:03:02.905Z,29.2531
2019-04-05T01:04:05.193Z,29.2393
2019-04-05T01:05:07.481Z,29.2149
2019-04-05T01:06:09.783Z,29.2012
2019-04-05T01:07:12.065Z,29.1417
2019-04-05T01:08:14.354Z,29.2149
2019-04-05T01:09:16.637Z,29.1569
2019-04-05T01:10:18.936Z,29.2302
2019-04-05T01:11:21.230Z,29.1600
2019-04-05T01:12:23.517Z,29.2103
2019-04-05T01:13:25.809Z,29.2012
2019-04-05T01:14:28.098Z,29.2973
2019-04-05T01:15:40.280Z,29.1829
2019-04-05T01:16:38.641Z,29.1386
2019-04-05T01:17:40.962Z,29.1752
2019-04-05T01:18:43.247Z,29.1707
2019-04-05T01:19:45.542Z,29.1691
2019-04-05T01:20:47.828Z,29.2393
2019-04-05T01:21:50.117Z,29.2378
2019-04-05T01:22:52.412Z,29.1966
2019-04-05T01:23:54.699Z,29.1966
2019-04-05T01:24:57.024Z,29.2943
2019-04-05T01:25:59.317Z,29.2378
2019-04-05T01:27:01.662Z,29.2653
2019-04-05T01:28:03.953Z,29.2790
2019-04-05T01:29:06.253Z,29.1661
2019-04-05T01:30:08.544Z,29.2119
2019-04-05T01:31:10.831Z,29.3080
2019-04-05T01:32:13.120Z,29.2073
2019-04-05T01:33:15.413Z,29.2897
2019-04-05T01:34:17.704Z,29.3172
2019-04-05T01:35:19.990Z,29.2348
2019-04-05T01:36:22.342Z,29.2485
2019-04-05T01:37:24.631Z,29.3614
2019-04-05T01:38:26.922Z,29.2927
2019-04-05T01:39:29.215Z,29.3080
2019-04-05T01:40:31.511Z,29.2531
2019-04-05T01:41:33.801Z,29.2653
2019-04-05T01:42:36.087Z,29.2241
2019-04-05T01:43:38.372Z,29.3172
2019-04-05T01:44:40.669Z,29.2897
2019-04-05T01:45:53.014Z,29.3446
2019-04-05T01:46:51.278Z,29.3355
2019-04-05T01:47:53.570Z,29.3080
2019-04-05T01:48:55.868Z,29.2653
2019-04-05T01:49:58.159Z,29.2927
2019-04-05T01:51:00.448Z,29.2927
2019-04-05T01:52:02.739Z,29.2103
2019-04-05T01:53:05.031Z,29.3309
2019-04-05T01:54:07.320Z,29.2897
2019-04-05T01:55:09.605Z,29.3172
2019-04-05T01:56:11.898Z,29.2607
2019-04-05T01:57:14.182Z,29.3156
2019-04-05T01:58:16.470Z,29.2241
2019-04-05T01:59:18.768Z,29.2607
2019-04-05T02:00:21.064Z,29.2897
2019-04-05T02:01:23.354Z,29.4728
2019-04-05T02:02:25.656Z,29.3172
2019-04-05T02:03:27.944Z,29.2607
2019-04-05T02:04:30.231Z,29.2882
2019-04-05T02:05:39.754Z,29.2470
2019-04-05T02:06:47.013Z,29.2607
2019-04-05T02:07:49.305Z,29.2470
2019-04-05T02:08:51.631Z,29.3339
2019-04-05T02:09:53.920Z,29.3034
2019-04-05T02:10:56.208Z,29.3156
2019-04-05T02:11:58.503Z,29.2607
2019-04-05T02:13:00.796Z,29.2760
2019-04-05T02:14:03.078Z,29.2744
2019-04-05T02:15:05.379Z,29.3706
2019-04-05T02:16:15.250Z,29.2882
2019-04-05T02:17:17.535Z,29.3126
2019-04-05T02:18:19.846Z,29.3996
2019-04-05T02:19:22.140Z,29.2744
2019-04-05T02:20:24.431Z,29.3706
2019-04-05T02:21:26.718Z,29.3568
2019-04-05T02:22:29.027Z,29.4804
2019-04-05T02:23:31.322Z,29.4957
2019-04-05T02:24:33.611Z,29.5079
2019-04-05T02:25:35.907Z,29.3019
2019-04-05T02:26:38.211Z,29.3431
2019-04-05T02:27:40.501Z,29.2576
2019-04-05T02:28:42.790Z,29.3019
2019-04-05T02:29:45.086Z,29.2851
2019-04-05T02:30:47.371Z,29.2988
2019-04-05T02:31:49.672Z,29.2576
2019-04-05T02:32:52.030Z,29.3019
2019-04-05T02:33:54.329Z,29.3400
2019-04-05T02:34:56.629Z,29.3385
2019-04-05T02:35:58.923Z,29.2836
2019-04-05T02:37:01.239Z,29.3126
2019-04-05T02:38:03.550Z,29.3126
2019-04-05T02:39:05.883Z,29.2714
2019-04-05T02:40:08.190Z,29.2836
2019-04-05T02:41:10.474Z,29.3538
2019-04-05T02:42:12.774Z,29.3019
2019-04-05T02:43:15.064Z,29.2851
2019-04-05T02:44:17.353Z,29.2973
2019-04-05T02:45:19.650Z,29.3111
2019-04-05T02:46:24.010Z,29.3355
2019-04-05T02:47:26.655Z,29.2714
2019-04-05T02:48:28.961Z,29.3080
2019-04-05T02:49:31.254Z,29.3904
2019-04-05T02:50:33.551Z,29.3248
2019-04-05T02:51:35.851Z,29.3523
2019-04-05T02:52:38.188Z,29.2943
2019-04-05T02:53:40.494Z,29.3904
2019-04-05T02:54:42.799Z,29.4087
2019-04-05T02:55:45.097Z,29.3400
2019-04-05T02:56:47.400Z,29.3248
2019-04-05T02:57:49.709Z,29.2515
2019-04-05T02:58:52.001Z,29.3111
2019-04-05T02:59:54.301Z,29.2943
2019-04-05T03:00:56.592Z,29.3263
2019-04-05T03:01:58.882Z,29.3080
2019-04-05T03:03:01.186Z,29.2393
2019-04-05T03:04:03.505Z,29.2943
2019-04-05T03:05:05.823Z,29.3248
2019-04-05T03:06:08.132Z,29.2805
2019-04-05T03:07:10.431Z,29.2515
2019-04-05T03:08:12.762Z,29.3080
2019-04-05T03:09:15.066Z,29.3767
2019-04-05T03:10:17.359Z,29.3309
2019-04-05T03:11:19.664Z,29.3339
2019-04-05T03:12:21.959Z,29.3080
2019-04-05T03:13:24.262Z,29.3767
2019-04-05T03:14:26.574Z,29.3080
2019-04-05T03:15:28.877Z,29.3339
2019-04-05T03:16:40.018Z,29.3339
2019-04-05T03:17:39.440Z,29.3797
2019-04-05T03:18:41.298Z,29.2515
2019-04-05T03:19:43.630Z,29.3065
2019-04-05T03:20:45.968Z,29.4179
2019-04-05T03:21:48.266Z,29.3767
2019-04-05T03:22:50.564Z,29.3492
2019-04-05T03:24:00.838Z,29.2790
2019-04-05T03:25:10.798Z,29.3217
2019-04-05T03:26:20.380Z,29.3339
2019-04-05T03:27:22.669Z,29.4865
2019-04-05T03:28:32.907Z,29.3614
2019-04-05T03:29:42.891Z,29.3614
2019-04-05T03:30:52.483Z,29.4133
2019-04-05T03:32:03.426Z,29.4759
2019-04-05T03:33:13.505Z,29.4163
2019-04-05T03:34:15.821Z,29.3492
2019-04-05T03:35:26.975Z,29.3904
2019-04-05T03:36:37.048Z,29.3889
2019-04-05T03:37:47.013Z,29.5140
2019-04-05T03:38:49.354Z,29.3996
2019-04-05T03:39:59.525Z,29.4163
2019-04-05T03:41:01.842Z,29.4026
2019-04-05T03:42:04.145Z,29.4026
2019-04-05T03:43:06.455Z,29.5140
2019-04-05T03:44:08.781Z,29.4728
2019-04-05T03:45:11.086Z,29.3889
2019-04-05T03:46:13.378Z,29.4163
2019-04-05T03:47:15.687Z,29.4850
2019-04-05T03:48:17.991Z,29.4591
2019-04-05T03:49:20.300Z,29.4270
2019-04-05T03:50:22.752Z,29.3996
2019-04-05T03:51:25.081Z,29.4453
2019-04-05T03:52:27.430Z,29.4621
2019-04-05T03:53:29.757Z,29.4865
2019-04-05T03:54:32.079Z,29.4575
2019-04-05T03:55:34.384Z,29.4484
2019-04-05T03:56:38.300Z,29.5140
2019-04-05T03:57:40.762Z,29.4453
2019-04-05T03:58:43.080Z,29.4575
2019-04-05T03:59:45.390Z,29.5308
2019-04-05T04:00:47.693Z,29.4453
2019-04-05T04:01:50.001Z,29.4728
2019-04-05T04:02:52.299Z,29.4759
2019-04-05T04:03:54.628Z,29.4301
2019-04-05T04:04:56.947Z,29.5995
2019-04-05T04:05:59.315Z,29.5964
2019-04-05T04:07:01.673Z,29.5308
2019-04-05T04:08:04.024Z,29.6407
2019-04-05T04:09:06.341Z,29.5140
2019-04-05T04:10:08.645Z,29.5583
2019-04-05T04:11:10.949Z,29.5872
2019-04-05T04:12:13.243Z,29.5262
2019-04-05T04:13:15.547Z,29.5415
2019-04-05T04:14:17.846Z,29.5277
2019-04-05T04:15:20.145Z,29.5415
2019-04-05T04:16:22.451Z,29.5827
2019-04-05T04:17:24.750Z,29.4865
2019-04-05T04:18:27.080Z,29.5689
2019-04-05T04:19:29.377Z,29.5125
2019-04-05T04:20:31.674Z,29.5262
2019-04-05T04:21:33.968Z,29.5415
2019-04-05T04:22:36.271Z,29.5140
2019-04-05T04:23:38.567Z,29.5140
2019-04-05T04:24:40.871Z,29.5537
2019-04-05T04:25:43.191Z,29.6788
2019-04-05T04:26:45.483Z,29.6239
2019-04-05T04:27:47.781Z,29.6223
2019-04-05T04:28:50.101Z,29.5964
2019-04-05T04:29:52.410Z,29.7780
2019-04-05T04:30:54.735Z,29.6819
2019-04-05T04:31:57.041Z,29.5689
2019-04-05T04:32:59.356Z,29.5125
2019-04-05T04:34:01.669Z,29.4453
2019-04-05T04:35:03.977Z,29.5598
2019-04-05T04:36:06.302Z,30.2327
2019-04-05T04:37:08.602Z,29.6864
2019-04-05T04:38:10.905Z,29.7566
2019-04-05T04:39:13.194Z,29.6727
2019-04-05T04:40:15.494Z,30.0954
2019-04-05T04:41:17.831Z,29.6590
2019-04-05T04:42:20.119Z,29.6590
2019-04-05T04:43:22.414Z,29.7475
2019-04-05T04:44:24.739Z,29.6864
2019-04-05T04:45:27.032Z,29.6590
2019-04-05T04:46:29.338Z,30.0679
2019-04-05T04:47:31.634Z,29.7749
2019-04-05T04:48:33.923Z,29.9535
2019-04-05T04:49:36.215Z,29.8711
2019-04-05T04:50:38.507Z,29.8711
2019-04-05T04:51:40.820Z,29.9977
2019-04-05T04:52:43.122Z,30.3639
2019-04-05T04:53:45.425Z,30.1808
2019-04-05T04:54:47.716Z,30.2876
2019-04-05T04:55:50.001Z,30.4555
2019-04-05T04:56:52.306Z,30.4707
2019-04-05T04:57:54.591Z,30.5806
2019-04-05T04:58:56.884Z,30.5257
2019-04-05T04:59:59.214Z,30.6218
2019-04-05T05:01:01.514Z,30.8095
2019-04-05T05:02:03.802Z,30.6569
2019-04-05T05:03:06.095Z,30.6996
2019-04-05T05:04:08.501Z,30.6264
2019-04-05T05:05:10.834Z,30.5882
2019-04-05T05:06:13.127Z,30.6020
2019-04-05T05:07:15.442Z,30.5348
2019-04-05T05:08:17.734Z,30.5379
2019-04-05T05:09:20.020Z,30.5241
2019-04-05T05:10:22.318Z,30.4250
2019-04-05T05:11:24.611Z,30.2724
2019-04-05T05:12:26.930Z,30.5150
2019-04-05T05:13:29.220Z,30.4112
2019-04-05T05:14:31.509Z,30.2281
2019-04-05T05:15:33.796Z,30.1167
2019-04-05T05:16:36.089Z,30.2586
2019-04-05T05:17:39.127Z,30.0481
2019-04-05T05:18:41.529Z,30.2602
2019-04-05T05:19:43.818Z,30.0664
2019-04-05T05:20:46.154Z,30.2052
2019-04-05T05:21:48.438Z,30.1411
2019-04-05T05:22:50.732Z,29.8528
2019-04-05T05:23:53.020Z,30.0908
2019-04-05T05:24:55.303Z,29.8833
2019-04-05T05:25:57.601Z,29.8833
2019-04-05T05:26:59.888Z,29.7749
2019-04-05T05:28:02.185Z,30.6203
2019-04-05T05:29:04.476Z,31.2627
2019-04-05T05:30:06.783Z,31.6014
2019-04-05T05:31:09.079Z,33.4585
2019-04-05T05:32:11.373Z,32.6680
2019-04-05T05:33:13.677Z,32.8817
2019-04-05T05:34:15.961Z,32.7367
2019-04-05T05:35:18.253Z,33.6828
2019-04-05T05:36:20.543Z,33.7743
2019-04-05T05:37:22.832Z,33.1029
2019-04-05T05:38:25.140Z,32.0211
2019-04-05T05:39:27.438Z,32.7367
2019-04-05T05:40:35.195Z,33.8903
2019-04-05T05:41:37.969Z,33.0114
2019-04-05T05:42:40.270Z,33.2494
2019-04-05T05:43:42.571Z,32.6299
2019-04-05T05:44:44.859Z,32.1782
2019-04-05T05:45:47.149Z,32.0134
2019-04-05T05:46:49.448Z,31.9982
2019-04-05T05:47:52.591Z,31.8257
2019-04-05T05:48:54.976Z,31.5190
2019-04-05T05:49:57.337Z,31.2535
2019-04-05T05:50:59.624Z,31.2398
2019-04-05T05:52:01.927Z,30.9743
2019-04-05T05:53:04.225Z,30.8598
2019-04-05T05:54:06.529Z,30.7073
2019-04-05T05:55:08.815Z,30.6340
2019-04-05T05:56:11.143Z,30.6218
2019-04-05T05:57:13.469Z,30.6813
2019-04-05T05:58:15.761Z,30.5928
2019-04-05T05:59:18.083Z,30.5241
2019-04-05T06:00:20.371Z,30.5257
2019-04-05T06:01:22.662Z,30.4555
2019-04-05T06:02:24.966Z,30.5257
2019-04-05T06:03:27.261Z,30.4463
2019-04-05T06:04:29.556Z,30.5150
2019-04-05T06:05:31.857Z,30.4295
2019-04-05T06:06:34.148Z,30.3883
2019-04-05T06:07:36.440Z,30.4006
2019-04-05T06:08:38.740Z,30.3471
2019-04-05T06:09:41.037Z,30.1808
2019-04-05T06:10:43.372Z,30.2083
2019-04-05T06:11:45.654Z,30.2632
2019-04-05T06:12:47.950Z,30.2235
2019-04-05T06:13:50.316Z,30.1549
2019-04-05T06:14:52.627Z,30.1259
2019-04-05T06:15:54.932Z,30.0389
2019-04-05T06:16:57.225Z,30.0679
2019-04-05T06:18:04.808Z,29.9748
2019-04-05T06:19:07.774Z,29.9306
2019-04-05T06:20:10.071Z,29.9443
2019-04-05T06:21:12.365Z,29.9031
2019-04-05T06:22:14.664Z,29.9580
2019-04-05T06:23:16.958Z,29.9580
2019-04-05T06:24:19.252Z,29.7505
2019-04-05T06:25:21.550Z,29.7658
2019-04-05T06:26:23.845Z,29.8116
2019-04-05T06:27:26.142Z,29.8512
2019-04-05T06:28:28.466Z,29.7978
2019-04-05T06:29:30.791Z,29.7978
2019-04-05T06:30:33.083Z,29.7139
2019-04-05T06:31:35.373Z,29.6971
2019-04-05T06:32:37.667Z,29.7841
2019-04-05T06:33:39.957Z,29.6971
2019-04-05T06:34:42.291Z,29.6864
2019-04-05T06:35:44.589Z,29.6040
2019-04-05T06:36:46.887Z,29.5872
2019-04-05T06:37:49.183Z,29.6040
2019-04-05T06:38:51.493Z,29.5766
2019-04-05T06:39:53.868Z,29.6147
2019-04-05T06:40:56.210Z,29.6452
2019-04-05T06:41:58.534Z,29.5781
2019-04-05T06:43:00.834Z,29.5079
2019-04-05T06:44:03.146Z,29.5079
2019-04-05T06:45:05.246Z,29.4636
2019-04-05T06:46:07.610Z,29.4347
2019-04-05T06:47:10.086Z,29.4957
2019-04-05T06:48:18.980Z,29.4347
2019-04-05T06:49:20.644Z,29.4041
2019-04-05T06:50:22.940Z,29.4911
2019-04-05T06:51:25.256Z,29.4453
2019-04-05T06:52:27.553Z,29.4804
2019-04-05T06:53:29.848Z,29.4209
2019-04-05T06:54:32.153Z,29.6452
2019-04-05T06:55:34.471Z,29.6284
2019-04-05T06:56:36.822Z,29.5735
2019-04-05T06:57:39.219Z,29.4820
2019-04-05T06:58:41.537Z,29.4545
2019-04-05T06:59:43.846Z,29.6086
2019-04-05T07:00:56.878Z,29.5445
2019-04-05T07:01:54.415Z,29.3904
2019-04-05T07:02:56.736Z,29.3767
2019-04-05T07:03:59.038Z,29.4041
2019-04-05T07:05:01.359Z,29.3950
2019-04-05T07:06:03.699Z,29.3294
2019-04-05T07:07:05.997Z,29.2699
2019-04-05T07:08:08.312Z,29.4224
2019-04-05T07:09:10.630Z,29.2164
2019-04-05T07:10:12.943Z,29.3172
2019-04-05T07:11:15.259Z,29.2332
2019-04-05T07:12:20.430Z,29.2607
2019-04-05T08:28:34.108Z,28.6061
2019-04-05T08:29:35.760Z,29.3721
2019-04-05T08:30:36.529Z,28.4916
2019-04-05T10:26:29.973Z,26.8803
2019-04-05T10:27:30.506Z,29.8161
2019-04-05T12:12:16.300Z,63.1846
2019-04-05T12:13:17.083Z,61.4725
2019-04-05T12:14:29.601Z,61.5183
2019-04-05T12:15:26.865Z,65.0599
2019-04-05T12:16:29.393Z,62.4887
2019-04-05T12:17:35.065Z,61.9852
2019-04-05T12:18:38.105Z,61.5534
2019-04-05T12:19:40.540Z,61.8692
2019-04-05T12:20:52.316Z,60.3738
2019-04-05T12:21:51.055Z,63.1067
2019-04-05T12:22:53.450Z,61.4221
2019-04-05T12:23:55.864Z,64.5838
2019-04-05T12:25:00.575Z,63.8331
2019-04-05T12:26:05.173Z,60.2441
2019-04-05T12:27:07.643Z,60.7217
2019-04-05T12:28:10.736Z,60.4913
2019-04-05T12:29:13.371Z,61.6266
2019-04-05T12:30:15.845Z,60.0748
2019-04-05T12:31:18.339Z,61.3886
2019-04-05T12:32:33.012Z,61.2757
2019-04-05T12:33:28.207Z,62.0768
2019-04-05T12:34:30.613Z,62.5559
2019-04-05T12:35:33.012Z,63.5081
2019-04-05T12:36:35.428Z,65.1011
2019-04-05T12:37:49.513Z,62.4552
2019-04-05T12:38:46.155Z,63.3219
2019-04-05T12:39:48.595Z,62.0844
2019-04-05T12:40:51.066Z,63.8025
2019-04-05T12:41:52.619Z,63.9719
2019-04-05T12:42:55.067Z,64.5792
2019-04-05T12:43:58.383Z,64.9638
2019-04-05T12:45:02.377Z,64.9958
2019-04-05T12:46:04.783Z,66.3966
2019-04-05T12:47:06.325Z,64.1138
2019-04-05T12:48:08.754Z,64.0360
2019-04-05T12:49:11.179Z,65.2308
2019-04-05T12:50:14.629Z,70.0603
2019-04-05T12:51:16.878Z,67.3365
2019-04-05T12:52:23.054Z,65.5589
2019-04-05T12:53:27.026Z,65.0874
2019-04-05T12:54:29.494Z,66.6819
2019-04-05T12:55:31.903Z,63.5645
2019-04-05T12:56:34.381Z,68.2506
2019-04-05T12:57:36.783Z,64.0711
2019-04-05T12:58:39.215Z,62.6719
2019-04-05T12:59:41.619Z,64.7395
2019-04-05T13:00:44.089Z,63.5218
2019-04-05T13:01:46.630Z,63.4134
2019-04-05T13:02:50.382Z,63.9582
2019-04-05T13:03:53.329Z,65.8808
2019-04-05T13:04:55.778Z,64.0757
2019-04-05T13:05:58.219Z,64.6937
2019-04-05T13:07:00.626Z,66.9200
2019-04-05T13:08:03.065Z,65.7572
2019-04-05T13:09:06.131Z,63.5691
2019-04-05T13:10:09.764Z,63.6194
2019-04-05T13:11:13.211Z,67.0710
2019-04-05T13:12:15.679Z,62.2217
2019-04-05T13:13:18.131Z,64.3183
2019-04-05T13:14:20.555Z,66.4744
2019-04-05T13:15:22.971Z,63.1479
2019-04-05T13:16:25.396Z,64.3061
2019-04-05T13:17:31.027Z,64.7440
2019-04-05T13:18:33.999Z,67.0069
2019-04-05T13:19:36.444Z,66.5385
2019-04-05T13:20:38.904Z,62.4292
2019-04-05T13:21:41.329Z,64.2908
2019-04-05T13:22:43.743Z,67.2816
2019-04-05T13:23:46.168Z,65.4307
2019-04-05T13:24:48.593Z,63.4714
2019-04-05T13:25:51.081Z,63.3982
2019-04-05T13:26:53.592Z,64.2741
2019-04-05T13:27:56.013Z,61.7105
2019-04-05T13:28:58.459Z,65.9205
2019-04-05T13:30:00.934Z,63.4806
2019-04-05T13:31:03.477Z,63.8621
2019-04-05T13:32:05.874Z,65.5100
2019-04-05T13:33:07.357Z,62.9603
2019-04-05T13:34:09.781Z,64.6403
2019-04-05T13:35:12.463Z,64.9104
2019-04-05T13:36:14.889Z,65.6977
2019-04-05T13:37:20.413Z,64.7547
2019-04-05T13:38:23.154Z,63.7476
2019-04-05T13:39:27.495Z,64.4739
2019-04-05T13:40:32.299Z,61.5091
2019-04-05T13:41:34.731Z,63.7522
2019-04-05T13:42:37.150Z,63.2532
2019-04-05T13:43:39.590Z,62.8550
2019-04-05T13:44:42.107Z,63.0564
2019-04-05T13:45:44.565Z,61.5732
2019-04-05T13:46:46.999Z,63.0884
2019-04-05T13:47:49.451Z,62.7527
2019-04-05T13:48:50.924Z,65.0050
2019-04-05T13:49:53.390Z,62.8260
2019-04-05T13:50:55.880Z,63.6728
2019-04-05T13:51:58.288Z,63.5233
2019-04-05T13:53:00.770Z,63.2471
2019-04-05T13:54:03.191Z,64.2954
2019-04-05T13:55:05.688Z,61.4984
2019-04-05T13:56:08.651Z,63.3249
2019-04-05T13:57:12.975Z,63.4592
2019-04-05T13:58:15.422Z,63.6683
2019-04-05T13:59:18.857Z,65.1759
2019-04-05T14:00:21.344Z,63.4302
2019-04-05T14:01:23.775Z,62.1683
2019-04-05T14:02:27.168Z,64.7181
2019-04-05T14:03:29.604Z,63.3860
2019-04-05T14:04:32.024Z,61.6465
2019-04-05T14:05:34.435Z,65.6794
2019-04-05T14:06:36.846Z,63.3631
2019-04-05T14:07:39.266Z,62.7070
2019-04-05T14:08:42.050Z,61.5076
2019-04-05T14:09:44.502Z,61.6220
2019-04-05T14:10:46.930Z,61.4038
2019-04-05T14:11:49.362Z,61.6541
2019-04-05T14:12:52.005Z,59.9893
2019-04-05T14:13:54.590Z,62.6520
2019-04-05T14:14:57.089Z,61.3107
2019-04-05T14:15:59.578Z,62.8946
2019-04-05T14:17:02.089Z,60.2762
2019-04-05T14:18:04.609Z,64.9180
2019-04-05T14:19:10.444Z,59.8245
2019-04-05T14:20:12.846Z,60.9003
2019-04-05T14:21:22.503Z,61.5183
2019-04-05T14:22:40.023Z,58.5458
2019-04-05T14:23:57.444Z,59.2325
2019-04-05T14:25:14.870Z,58.7747
2019-04-05T14:26:32.304Z,61.0498
2019-04-05T14:27:49.249Z,60.1770
2019-04-05T14:29:06.701Z,61.9745
2019-04-05T14:30:25.115Z,60.7950
2019-04-05T14:31:43.531Z,60.2258
2019-04-05T14:33:00.974Z,59.0402
2019-04-05T14:34:18.401Z,60.0519
2019-04-05T14:35:34.845Z,59.0875
2019-04-05T14:36:52.450Z,60.4501
2019-04-05T14:38:11.774Z,55.5200
2019-04-05T14:39:29.374Z,57.9293
2019-04-05T14:40:46.853Z,57.2427
2019-04-05T14:42:09.926Z,57.9232
2019-04-05T14:43:27.660Z,60.5417
2019-04-05T14:44:45.102Z,60.7309
2019-04-05T14:46:02.913Z,60.6928
2019-04-05T14:47:20.539Z,58.8159
2019-04-05T14:48:37.979Z,59.4308
2019-04-05T14:49:55.434Z,61.2238
2019-04-05T14:51:11.930Z,60.6653
2019-04-05T14:52:31.179Z,61.5213
2019-04-05T14:53:49.234Z,60.5829
2019-04-05T14:55:06.682Z,58.2712
2019-04-05T14:56:24.138Z,58.6328
2019-04-05T14:57:41.574Z,59.2248
2019-04-05T14:58:59.013Z,59.7284
2019-04-05T15:00:16.472Z,61.1566
2019-04-05T15:01:33.954Z,58.7396
2019-04-05T15:02:51.425Z,59.7452
2019-04-05T15:04:11.821Z,59.2508
2019-04-05T15:05:29.501Z,59.1836
2019-04-05T15:06:48.668Z,60.5737
2019-04-05T15:08:08.012Z,60.0748
2019-04-05T15:09:25.719Z,62.7314
2019-04-05T15:10:43.302Z,62.8412
2019-04-05T15:12:00.818Z,60.1724
2019-04-05T15:13:18.269Z,60.7126
2019-04-05T15:14:35.698Z,60.4837
2019-04-05T15:15:53.147Z,59.8291
2019-04-05T15:17:10.601Z,58.6114
2019-04-05T15:18:29.011Z,64.3320
2019-04-05T15:19:47.433Z,62.8367
2019-04-05T15:21:06.491Z,60.9445
2019-04-05T15:22:24.121Z,60.4273
2019-04-05T15:23:41.390Z,62.8031
2019-04-05T15:24:58.948Z,60.3311
2019-04-05T15:26:16.394Z,64.2008
2019-04-05T15:27:25.304Z,60.7889
2019-04-05T15:28:42.722Z,60.9125
2019-04-05T15:30:00.180Z,58.1292
2019-04-05T15:31:17.663Z,59.3423
2019-04-05T15:32:35.104Z,60.4654
2019-04-05T15:33:53.579Z,60.1663
2019-04-05T15:35:12.968Z,58.8769
2019-04-05T15:36:31.583Z,61.2161
2019-04-05T15:37:49.719Z,59.4675
2019-04-05T15:39:07.147Z,60.3540
2019-04-05T15:40:24.637Z,59.9893
2019-04-05T15:41:43.104Z,61.5045
2019-04-05T15:43:00.553Z,60.4013
2019-04-05T15:44:17.973Z,59.6368
2019-04-05T15:45:35.405Z,60.9689
2019-04-05T15:46:53.822Z,58.7976
2019-04-05T15:48:03.280Z,60.1480
2019-04-05T15:49:21.612Z,57.8515
2019-04-05T15:50:39.649Z,58.7655
2019-04-05T15:51:58.925Z,59.1241
2019-04-05T15:53:16.537Z,61.2421
2019-04-05T15:54:33.989Z,60.5295
2019-04-05T15:55:51.474Z,58.7060
2019-04-05T15:57:08.908Z,61.2192
2019-04-05T15:58:26.354Z,60.4013
2019-04-05T15:59:45.127Z,58.3688
2019-04-05T16:01:04.473Z,57.8195
2019-04-05T16:02:22.378Z,58.0575
2019-04-05T16:03:39.839Z,61.1322
2019-04-05T16:04:57.278Z,59.9527
2019-04-05T16:06:14.754Z,57.7127
2019-04-05T16:07:32.208Z,60.3052
2019-04-05T16:08:49.660Z,58.7976
2019-04-05T16:10:07.086Z,59.4720
2019-04-05T16:11:24.521Z,60.4456
2019-04-05T16:12:41.954Z,62.6886
2019-04-05T16:13:59.445Z,59.7406
2019-04-05T16:15:16.944Z,58.4268
2019-04-05T16:16:35.474Z,58.2986
2019-04-05T16:17:52.939Z,57.3556
2019-04-05T16:19:11.406Z,57.2931
2019-04-05T16:20:20.336Z,57.8836
2019-04-05T16:21:37.794Z,57.6226
2019-04-05T16:22:55.224Z,57.5860
2019-04-05T16:24:12.679Z,60.1068
2019-04-05T16:25:30.155Z,59.5087
2019-04-05T16:26:47.596Z,63.4089
2019-04-05T16:28:05.015Z,58.5611
2019-04-05T16:29:22.458Z,60.3647
2019-04-05T16:30:39.966Z,59.6033
2019-04-05T16:31:57.488Z,59.3210
2019-04-05T16:33:14.911Z,59.2645
2019-04-05T16:34:32.461Z,57.8149
2019-04-05T16:35:51.645Z,60.5005
2019-04-05T16:37:08.078Z,57.4533
2019-04-05T16:38:25.510Z,59.7421
2019-04-05T16:39:42.935Z,60.1846
2019-04-05T16:40:59.343Z,58.4726
2019-04-05T16:42:16.789Z,62.5986
2019-04-05T16:43:34.245Z,59.0829
2019-04-05T16:44:51.637Z,61.1292
2019-04-05T16:46:09.046Z,61.0285
2019-04-05T16:47:26.430Z,59.1592
2019-04-05T16:48:43.880Z,60.4288
2019-04-05T16:50:01.286Z,58.9944
2019-04-05T16:51:18.680Z,66.0731
2019-04-05T16:52:44.897Z,68.0598
2019-04-05T16:53:58.481Z,64.3000
2019-04-05T16:55:15.885Z,59.5895
2019-04-05T16:56:33.383Z,66.6712
2019-04-05T16:57:50.805Z,64.5243
2019-04-05T16:59:08.237Z,63.1876
2019-04-05T17:00:25.696Z,68.5451
2019-04-05T17:01:43.163Z,69.8268
2019-04-05T17:03:00.607Z,70.5226
2019-04-05T17:04:18.043Z,73.9834
2019-04-05T17:05:35.517Z,75.2346
2019-04-05T17:06:52.999Z,77.8195
2019-04-05T17:08:10.477Z,79.5377
2019-04-05T17:09:19.336Z,79.7696
2019-04-05T17:10:36.780Z,79.0387
2019-04-05T17:11:54.198Z,78.9502
2019-04-05T17:13:11.647Z,77.6242
2019-04-05T17:14:29.239Z,74.8760
2019-04-05T17:15:46.717Z,73.5744
2019-04-05T17:17:04.182Z,75.9472
2019-04-05T17:18:21.642Z,77.6455
2019-04-05T17:19:38.113Z,77.6501
2019-04-05T17:20:54.625Z,73.8399
2019-04-05T17:22:12.165Z,74.6609
2019-04-05T17:23:32.875Z,78.3825
2019-04-05T17:24:50.734Z,79.4141
2019-04-05T17:26:08.346Z,80.4837
2019-04-05T17:27:25.865Z,80.4059
2019-04-05T17:28:43.375Z,81.0025
2019-04-05T17:30:00.831Z,82.5544
2019-04-05T17:31:18.299Z,82.8153
2019-04-05T17:32:35.732Z,81.5000
2019-04-05T17:33:53.231Z,80.8591
2019-04-05T17:35:10.706Z,81.1856
2019-04-05T17:36:28.227Z,82.5803
2019-04-05T17:37:37.295Z,82.1042
2019-04-05T17:38:54.818Z,83.0671
2019-04-05T17:40:12.316Z,84.8753
2019-04-05T17:41:29.767Z,82.0783
2019-04-05T17:42:47.265Z,80.2976
2019-04-05T17:44:04.726Z,82.4659
2019-04-05T17:45:22.187Z,81.4649
2019-04-05T17:46:39.736Z,83.3234
2019-04-05T17:47:57.185Z,84.0635
2019-04-05T17:49:14.681Z,85.0843
2019-04-05T17:50:31.207Z,84.5182
2019-04-05T17:51:48.661Z,83.3860
2019-04-05T17:53:12.618Z,82.8229
2019-04-05T17:54:28.610Z,84.4846
2019-04-05T17:55:46.256Z,85.0294
2019-04-05T17:57:03.706Z,85.5940
2019-04-05T17:58:21.240Z,85.2537
2019-04-05T17:59:38.682Z,86.2623
2019-04-05T18:00:56.132Z,85.7343
2019-04-05T18:02:13.661Z,86.5309
2019-04-05T18:03:31.100Z,85.5344
2019-04-05T18:04:48.554Z,84.9195
2019-04-05T18:06:06.097Z,84.8554
2019-04-05T18:07:24.663Z,85.1621
2019-04-05T18:08:42.158Z,85.9648
2019-04-05T18:09:59.666Z,86.0136
2019-04-05T18:11:17.164Z,87.0298
2019-04-05T18:12:34.635Z,86.9261
2019-04-05T18:13:52.132Z,88.5786
2019-04-05T18:15:09.625Z,88.7160
2019-04-05T18:16:27.162Z,87.9835
2019-04-05T18:17:44.600Z,87.3915